sensor_id;sensor_type;location;lat;lon;timestamp;P1;durP1;ratioP1;P2;durP2;ratioP2
52816;SDS011;38687;43.330;21.924;2023-04-10T00:00:31;68.55;;;37.72;;
52816;SDS011;38687;43.330;21.924;2023-04-10T00:02:57;71.50;;;37.35;;
52816;SDS011;38687;43.330;21.924;2023-04-10T00:05:25;63.92;;;33.53;;
52816;SDS011;38687;43.330;21.924;2023-04-10T00:07:51;52.97;;;30.45;;
52816;SDS011;38687;43.330;21.924;2023-04-10T00:10:18;53.70;;;28.25;;
52816;SDS011;38687;43.330;21.924;2023-04-10T00:12:44;54.20;;;28.42;;
52816;SDS011;38687;43.330;21.924;2023-04-10T00:15:10;47.05;;;25.77;;
52816;SDS011;38687;43.330;21.924;2023-04-10T00:17:35;52.75;;;29.45;;
52816;SDS011;38687;43.330;21.924;2023-04-10T00:20:01;54.60;;;28.42;;
52816;SDS011;38687;43.330;21.924;2023-04-10T00:22:28;49.97;;;28.45;;
52816;SDS011;38687;43.330;21.924;2023-04-10T00:24:53;55.22;;;27.75;;
52816;SDS011;38687;43.330;21.924;2023-04-10T00:27:18;55.05;;;29.80;;
52816;SDS011;38687;43.330;21.924;2023-04-10T00:29:44;54.70;;;28.73;;
52816;SDS011;38687;43.330;21.924;2023-04-10T00:32:09;54.05;;;27.65;;
52816;SDS011;38687;43.330;21.924;2023-04-10T00:34:34;53.70;;;27.00;;
52816;SDS011;38687;43.330;21.924;2023-04-10T00:37:00;55.67;;;26.83;;
52816;SDS011;38687;43.330;21.924;2023-04-10T00:39:25;46.40;;;25.80;;
52816;SDS011;38687;43.330;21.924;2023-04-10T00:41:51;41.38;;;22.02;;
52816;SDS011;38687;43.330;21.924;2023-04-10T00:44:16;39.00;;;20.70;;
52816;SDS011;38687;43.330;21.924;2023-04-10T00:46:41;38.38;;;22.27;;
52816;SDS011;38687;43.330;21.924;2023-04-10T00:49:07;37.05;;;20.83;;
52816;SDS011;38687;43.330;21.924;2023-04-10T00:51:33;33.75;;;20.05;;
52816;SDS011;38687;43.330;21.924;2023-04-10T00:53:59;34.60;;;18.63;;
52816;SDS011;38687;43.330;21.924;2023-04-10T00:56:26;36.78;;;21.63;;
52816;SDS011;38687;43.330;21.924;2023-04-10T00:58:52;49.75;;;26.85;;
52816;SDS011;38687;43.330;21.924;2023-04-10T01:01:18;47.30;;;26.88;;
52816;SDS011;38687;43.330;21.924;2023-04-10T01:03:43;50.47;;;28.65;;
52816;SDS011;38687;43.330;21.924;2023-04-10T01:11:47;47.15;;;23.80;;
52816;SDS011;38687;43.330;21.924;2023-04-10T01:17:21;46.30;;;22.90;;
52816;SDS011;38687;43.330;21.924;2023-04-10T01:20:08;43.58;;;22.95;;
52816;SDS011;38687;43.330;21.924;2023-04-10T01:22:40;38.60;;;21.88;;
52816;SDS011;38687;43.330;21.924;2023-04-10T01:30:15;39.30;;;21.33;;
52816;SDS011;38687;43.330;21.924;2023-04-10T01:32:42;33.47;;;19.00;;
52816;SDS011;38687;43.330;21.924;2023-04-10T01:35:08;34.20;;;18.60;;
52816;SDS011;38687;43.330;21.924;2023-04-10T01:37:36;32.15;;;17.95;;
52816;SDS011;38687;43.330;21.924;2023-04-10T01:40:03;45.92;;;23.38;;
52816;SDS011;38687;43.330;21.924;2023-04-10T01:42:34;44.15;;;23.48;;
52816;SDS011;38687;43.330;21.924;2023-04-10T01:45:03;39.72;;;21.70;;
52816;SDS011;38687;43.330;21.924;2023-04-10T01:47:30;51.33;;;24.08;;
52816;SDS011;38687;43.330;21.924;2023-04-10T01:49:56;46.80;;;27.27;;
52816;SDS011;38687;43.330;21.924;2023-04-10T01:52:22;60.00;;;30.27;;
52816;SDS011;38687;43.330;21.924;2023-04-10T01:54:48;49.85;;;25.83;;
52816;SDS011;38687;43.330;21.924;2023-04-10T01:57:14;39.92;;;24.17;;
52816;SDS011;38687;43.330;21.924;2023-04-10T01:59:40;42.25;;;24.38;;
52816;SDS011;38687;43.330;21.924;2023-04-10T02:02:06;39.25;;;22.42;;
52816;SDS011;38687;43.330;21.924;2023-04-10T02:04:32;34.63;;;19.55;;
52816;SDS011;38687;43.330;21.924;2023-04-10T02:12:10;46.20;;;26.60;;
52816;SDS011;38687;43.330;21.924;2023-04-10T02:14:46;53.97;;;30.08;;
52816;SDS011;38687;43.330;21.924;2023-04-10T02:17:13;61.80;;;32.58;;
52816;SDS011;38687;43.330;21.924;2023-04-10T02:19:41;56.28;;;33.88;;
52816;SDS011;38687;43.330;21.924;2023-04-10T02:22:06;62.72;;;35.63;;
52816;SDS011;38687;43.330;21.924;2023-04-10T02:24:32;66.03;;;33.95;;
52816;SDS011;38687;43.330;21.924;2023-04-10T02:26:58;52.50;;;30.85;;
52816;SDS011;38687;43.330;21.924;2023-04-10T02:29:26;51.05;;;26.95;;
52816;SDS011;38687;43.330;21.924;2023-04-10T02:31:51;38.80;;;21.20;;
52816;SDS011;38687;43.330;21.924;2023-04-10T02:34:16;38.25;;;22.33;;
52816;SDS011;38687;43.330;21.924;2023-04-10T02:36:42;36.50;;;20.58;;
52816;SDS011;38687;43.330;21.924;2023-04-10T02:39:07;42.30;;;21.52;;
52816;SDS011;38687;43.330;21.924;2023-04-10T02:41:33;41.85;;;20.92;;
52816;SDS011;38687;43.330;21.924;2023-04-10T02:43:58;35.97;;;19.17;;
52816;SDS011;38687;43.330;21.924;2023-04-10T02:46:23;35.17;;;20.05;;
52816;SDS011;38687;43.330;21.924;2023-04-10T02:48:50;37.58;;;20.17;;
52816;SDS011;38687;43.330;21.924;2023-04-10T02:51:16;41.03;;;21.83;;
52816;SDS011;38687;43.330;21.924;2023-04-10T02:53:41;39.03;;;20.98;;
52816;SDS011;38687;43.330;21.924;2023-04-10T02:56:07;38.38;;;20.60;;
52816;SDS011;38687;43.330;21.924;2023-04-10T02:58:33;38.92;;;21.67;;
52816;SDS011;38687;43.330;21.924;2023-04-10T03:00:59;38.72;;;20.70;;
52816;SDS011;38687;43.330;21.924;2023-04-10T03:03:25;34.17;;;18.35;;
52816;SDS011;38687;43.330;21.924;2023-04-10T03:05:51;28.63;;;18.25;;
52816;SDS011;38687;43.330;21.924;2023-04-10T03:08:17;33.45;;;18.95;;
52816;SDS011;38687;43.330;21.924;2023-04-10T03:10:43;38.17;;;21.40;;
52816;SDS011;38687;43.330;21.924;2023-04-10T03:13:09;35.92;;;20.83;;
52816;SDS011;38687;43.330;21.924;2023-04-10T03:15:34;39.45;;;20.70;;
52816;SDS011;38687;43.330;21.924;2023-04-10T03:18:00;33.60;;;19.92;;
52816;SDS011;38687;43.330;21.924;2023-04-10T03:20:26;35.97;;;21.08;;
52816;SDS011;38687;43.330;21.924;2023-04-10T03:22:51;54.35;;;26.88;;
52816;SDS011;38687;43.330;21.924;2023-04-10T03:25:17;48.78;;;25.23;;
52816;SDS011;38687;43.330;21.924;2023-04-10T03:27:42;42.83;;;23.30;;
52816;SDS011;38687;43.330;21.924;2023-04-10T03:30:07;47.33;;;23.80;;
52816;SDS011;38687;43.330;21.924;2023-04-10T03:32:33;51.38;;;26.90;;
52816;SDS011;38687;43.330;21.924;2023-04-10T03:34:58;46.22;;;22.98;;
52816;SDS011;38687;43.330;21.924;2023-04-10T03:37:24;48.67;;;23.33;;
52816;SDS011;38687;43.330;21.924;2023-04-10T03:39:51;49.65;;;25.58;;
52816;SDS011;38687;43.330;21.924;2023-04-10T03:42:17;57.20;;;29.95;;
52816;SDS011;38687;43.330;21.924;2023-04-10T03:44:42;92.22;;;44.60;;
52816;SDS011;38687;43.330;21.924;2023-04-10T03:47:07;51.58;;;26.27;;
52816;SDS011;38687;43.330;21.924;2023-04-10T03:49:33;42.30;;;23.38;;
52816;SDS011;38687;43.330;21.924;2023-04-10T03:51:58;38.63;;;22.10;;
52816;SDS011;38687;43.330;21.924;2023-04-10T03:54:23;44.25;;;25.50;;
52816;SDS011;38687;43.330;21.924;2023-04-10T03:56:49;41.78;;;22.05;;
52816;SDS011;38687;43.330;21.924;2023-04-10T03:59:14;37.15;;;21.63;;
52816;SDS011;38687;43.330;21.924;2023-04-10T04:01:40;44.25;;;23.27;;
52816;SDS011;38687;43.330;21.924;2023-04-10T04:04:05;55.15;;;31.27;;
52816;SDS011;38687;43.330;21.924;2023-04-10T04:06:31;56.83;;;28.70;;
52816;SDS011;38687;43.330;21.924;2023-04-10T04:08:59;54.65;;;29.08;;
52816;SDS011;38687;43.330;21.924;2023-04-10T04:11:24;50.25;;;26.95;;
52816;SDS011;38687;43.330;21.924;2023-04-10T04:13:51;39.47;;;22.90;;
52816;SDS011;38687;43.330;21.924;2023-04-10T04:16:17;36.90;;;21.67;;
52816;SDS011;38687;43.330;21.924;2023-04-10T04:18:42;34.13;;;19.85;;
52816;SDS011;38687;43.330;21.924;2023-04-10T04:21:07;33.85;;;20.15;;
52816;SDS011;38687;43.330;21.924;2023-04-10T04:23:33;34.38;;;18.88;;
52816;SDS011;38687;43.330;21.924;2023-04-10T04:25:58;36.95;;;19.40;;
52816;SDS011;38687;43.330;21.924;2023-04-10T04:28:24;37.72;;;21.40;;
52816;SDS011;38687;43.330;21.924;2023-04-10T04:30:49;41.92;;;23.73;;
52816;SDS011;38687;43.330;21.924;2023-04-10T04:33:15;33.97;;;20.25;;
52816;SDS011;38687;43.330;21.924;2023-04-10T04:35:40;37.20;;;20.88;;
52816;SDS011;38687;43.330;21.924;2023-04-10T04:38:05;38.47;;;21.35;;
52816;SDS011;38687;43.330;21.924;2023-04-10T04:40:31;42.78;;;21.13;;
52816;SDS011;38687;43.330;21.924;2023-04-10T04:42:56;38.97;;;22.10;;
52816;SDS011;38687;43.330;21.924;2023-04-10T04:45:21;39.47;;;21.55;;
52816;SDS011;38687;43.330;21.924;2023-04-10T04:47:49;40.55;;;24.70;;
52816;SDS011;38687;43.330;21.924;2023-04-10T04:50:14;44.53;;;23.30;;
52816;SDS011;38687;43.330;21.924;2023-04-10T04:52:40;47.25;;;25.17;;
52816;SDS011;38687;43.330;21.924;2023-04-10T04:55:05;38.70;;;20.88;;
52816;SDS011;38687;43.330;21.924;2023-04-10T04:57:31;77.25;;;39.75;;
52816;SDS011;38687;43.330;21.924;2023-04-10T04:59:56;76.53;;;42.20;;
52816;SDS011;38687;43.330;21.924;2023-04-10T05:02:22;80.75;;;40.50;;
52816;SDS011;38687;43.330;21.924;2023-04-10T05:04:47;68.95;;;37.85;;
52816;SDS011;38687;43.330;21.924;2023-04-10T05:07:13;55.90;;;33.05;;
52816;SDS011;38687;43.330;21.924;2023-04-10T05:09:38;55.15;;;30.20;;
52816;SDS011;38687;43.330;21.924;2023-04-10T05:12:03;54.13;;;29.90;;
52816;SDS011;38687;43.330;21.924;2023-04-10T05:14:29;57.33;;;34.70;;
52816;SDS011;38687;43.330;21.924;2023-04-10T05:16:59;65.60;;;36.83;;
52816;SDS011;38687;43.330;21.924;2023-04-10T05:19:25;57.63;;;34.28;;
52816;SDS011;38687;43.330;21.924;2023-04-10T05:21:50;66.57;;;38.65;;
52816;SDS011;38687;43.330;21.924;2023-04-10T05:24:16;64.00;;;36.15;;
52816;SDS011;38687;43.330;21.924;2023-04-10T05:26:41;67.38;;;36.17;;
52816;SDS011;38687;43.330;21.924;2023-04-10T05:29:09;103.03;;;56.30;;
52816;SDS011;38687;43.330;21.924;2023-04-10T05:31:38;118.03;;;64.22;;
52816;SDS011;38687;43.330;21.924;2023-04-10T05:34:03;96.13;;;52.13;;
52816;SDS011;38687;43.330;21.924;2023-04-10T05:36:29;94.13;;;46.00;;
52816;SDS011;38687;43.330;21.924;2023-04-10T05:38:57;81.65;;;44.20;;
52816;SDS011;38687;43.330;21.924;2023-04-10T05:41:22;102.43;;;51.67;;
52816;SDS011;38687;43.330;21.924;2023-04-10T05:43:47;45.72;;;26.85;;
52816;SDS011;38687;43.330;21.924;2023-04-10T05:46:13;41.55;;;23.40;;
52816;SDS011;38687;43.330;21.924;2023-04-10T05:48:39;37.20;;;20.73;;
52816;SDS011;38687;43.330;21.924;2023-04-10T05:51:05;37.40;;;21.27;;
52816;SDS011;38687;43.330;21.924;2023-04-10T05:53:33;46.78;;;23.70;;
52816;SDS011;38687;43.330;21.924;2023-04-10T05:55:59;44.65;;;22.75;;
52816;SDS011;38687;43.330;21.924;2023-04-10T05:58:27;43.17;;;22.50;;
52816;SDS011;38687;43.330;21.924;2023-04-10T06:00:53;40.83;;;22.52;;
52816;SDS011;38687;43.330;21.924;2023-04-10T06:03:20;38.05;;;20.88;;
52816;SDS011;38687;43.330;21.924;2023-04-10T06:05:45;34.28;;;20.02;;
52816;SDS011;38687;43.330;21.924;2023-04-10T06:08:11;37.08;;;19.88;;
52816;SDS011;38687;43.330;21.924;2023-04-10T06:10:36;37.97;;;20.95;;
52816;SDS011;38687;43.330;21.924;2023-04-10T06:13:02;44.45;;;22.17;;
52816;SDS011;38687;43.330;21.924;2023-04-10T06:15:27;42.53;;;20.48;;
52816;SDS011;38687;43.330;21.924;2023-04-10T06:17:53;43.33;;;22.05;;
52816;SDS011;38687;43.330;21.924;2023-04-10T06:20:19;51.13;;;28.10;;
52816;SDS011;38687;43.330;21.924;2023-04-10T06:22:45;41.10;;;22.88;;
52816;SDS011;38687;43.330;21.924;2023-04-10T06:25:11;65.93;;;30.27;;
52816;SDS011;38687;43.330;21.924;2023-04-10T06:27:36;43.05;;;21.40;;
52816;SDS011;38687;43.330;21.924;2023-04-10T06:30:02;56.00;;;26.48;;
52816;SDS011;38687;43.330;21.924;2023-04-10T06:32:27;49.92;;;23.83;;
52816;SDS011;38687;43.330;21.924;2023-04-10T06:34:53;43.25;;;23.00;;
52816;SDS011;38687;43.330;21.924;2023-04-10T06:37:18;48.60;;;23.35;;
52816;SDS011;38687;43.330;21.924;2023-04-10T06:39:43;54.15;;;25.92;;
52816;SDS011;38687;43.330;21.924;2023-04-10T06:42:09;34.33;;;20.17;;
52816;SDS011;38687;43.330;21.924;2023-04-10T06:44:35;63.28;;;30.85;;
52816;SDS011;38687;43.330;21.924;2023-04-10T06:47:00;63.25;;;32.28;;
52816;SDS011;38687;43.330;21.924;2023-04-10T06:49:25;48.33;;;24.60;;
52816;SDS011;38687;43.330;21.924;2023-04-10T06:51:51;42.35;;;21.58;;
52816;SDS011;38687;43.330;21.924;2023-04-10T06:54:16;56.03;;;27.48;;
52816;SDS011;38687;43.330;21.924;2023-04-10T06:56:41;41.97;;;23.60;;
52816;SDS011;38687;43.330;21.924;2023-04-10T06:59:07;50.05;;;25.45;;
52816;SDS011;38687;43.330;21.924;2023-04-10T07:01:32;48.47;;;24.08;;
52816;SDS011;38687;43.330;21.924;2023-04-10T07:03:58;42.80;;;25.15;;
52816;SDS011;38687;43.330;21.924;2023-04-10T07:06:23;43.70;;;23.38;;
52816;SDS011;38687;43.330;21.924;2023-04-10T07:08:48;38.22;;;21.42;;
52816;SDS011;38687;43.330;21.924;2023-04-10T07:11:14;49.65;;;25.58;;
52816;SDS011;38687;43.330;21.924;2023-04-10T07:13:40;36.17;;;21.10;;
52816;SDS011;38687;43.330;21.924;2023-04-10T07:16:05;42.85;;;22.15;;
52816;SDS011;38687;43.330;21.924;2023-04-10T07:18:35;50.42;;;25.13;;
52816;SDS011;38687;43.330;21.924;2023-04-10T07:21:07;39.38;;;22.20;;
52816;SDS011;38687;43.330;21.924;2023-04-10T07:23:34;40.05;;;20.52;;
52816;SDS011;38687;43.330;21.924;2023-04-10T07:25:59;46.13;;;24.20;;
52816;SDS011;38687;43.330;21.924;2023-04-10T07:28:25;41.97;;;23.30;;
52816;SDS011;38687;43.330;21.924;2023-04-10T07:30:50;48.53;;;24.42;;
52816;SDS011;38687;43.330;21.924;2023-04-10T07:33:16;40.00;;;23.00;;
52816;SDS011;38687;43.330;21.924;2023-04-10T07:35:41;38.38;;;20.73;;
52816;SDS011;38687;43.330;21.924;2023-04-10T07:38:06;42.70;;;22.70;;
52816;SDS011;38687;43.330;21.924;2023-04-10T07:40:32;37.40;;;21.90;;
52816;SDS011;38687;43.330;21.924;2023-04-10T07:42:57;34.53;;;21.00;;
52816;SDS011;38687;43.330;21.924;2023-04-10T07:45:23;35.22;;;20.20;;
52816;SDS011;38687;43.330;21.924;2023-04-10T07:47:48;36.78;;;21.65;;
52816;SDS011;38687;43.330;21.924;2023-04-10T07:50:13;40.03;;;21.67;;
52816;SDS011;38687;43.330;21.924;2023-04-10T07:52:39;37.67;;;22.02;;
52816;SDS011;38687;43.330;21.924;2023-04-10T07:55:04;31.92;;;18.73;;
52816;SDS011;38687;43.330;21.924;2023-04-10T07:57:30;31.20;;;18.52;;
52816;SDS011;38687;43.330;21.924;2023-04-10T07:59:56;53.63;;;26.02;;
52816;SDS011;38687;43.330;21.924;2023-04-10T08:02:21;35.40;;;19.88;;
52816;SDS011;38687;43.330;21.924;2023-04-10T08:04:47;35.25;;;20.23;;
52816;SDS011;38687;43.330;21.924;2023-04-10T08:07:12;30.85;;;17.40;;
52816;SDS011;38687;43.330;21.924;2023-04-10T08:09:37;39.05;;;21.80;;
52816;SDS011;38687;43.330;21.924;2023-04-10T08:12:03;37.67;;;21.48;;
52816;SDS011;38687;43.330;21.924;2023-04-10T08:14:28;34.35;;;20.52;;
52816;SDS011;38687;43.330;21.924;2023-04-10T08:16:54;35.15;;;20.02;;
52816;SDS011;38687;43.330;21.924;2023-04-10T08:19:19;28.65;;;16.45;;
52816;SDS011;38687;43.330;21.924;2023-04-10T08:21:44;32.60;;;21.52;;
52816;SDS011;38687;43.330;21.924;2023-04-10T08:24:10;36.67;;;21.02;;
52816;SDS011;38687;43.330;21.924;2023-04-10T08:26:35;32.65;;;20.00;;
52816;SDS011;38687;43.330;21.924;2023-04-10T08:29:00;36.92;;;21.25;;
52816;SDS011;38687;43.330;21.924;2023-04-10T08:31:26;32.30;;;19.52;;
52816;SDS011;38687;43.330;21.924;2023-04-10T08:33:52;34.20;;;21.95;;
52816;SDS011;38687;43.330;21.924;2023-04-10T08:36:18;31.95;;;19.50;;
52816;SDS011;38687;43.330;21.924;2023-04-10T08:38:43;39.45;;;22.60;;
52816;SDS011;38687;43.330;21.924;2023-04-10T08:41:09;34.95;;;21.58;;
52816;SDS011;38687;43.330;21.924;2023-04-10T08:43:39;34.72;;;21.75;;
52816;SDS011;38687;43.330;21.924;2023-04-10T08:46:04;30.85;;;19.08;;
52816;SDS011;38687;43.330;21.924;2023-04-10T08:48:33;32.90;;;20.27;;
52816;SDS011;38687;43.330;21.924;2023-04-10T08:51:02;35.25;;;21.02;;
52816;SDS011;38687;43.330;21.924;2023-04-10T08:53:29;31.85;;;18.60;;
52816;SDS011;38687;43.330;21.924;2023-04-10T08:55:55;30.80;;;20.17;;
52816;SDS011;38687;43.330;21.924;2023-04-10T08:58:23;31.15;;;18.63;;
52816;SDS011;38687;43.330;21.924;2023-04-10T09:00:48;32.15;;;19.73;;
52816;SDS011;38687;43.330;21.924;2023-04-10T09:03:15;31.98;;;21.00;;
52816;SDS011;38687;43.330;21.924;2023-04-10T09:05:41;30.75;;;18.95;;
52816;SDS011;38687;43.330;21.924;2023-04-10T09:08:07;27.85;;;17.05;;
52816;SDS011;38687;43.330;21.924;2023-04-10T09:10:33;28.25;;;18.33;;
52816;SDS011;38687;43.330;21.924;2023-04-10T09:12:59;30.70;;;18.73;;
52816;SDS011;38687;43.330;21.924;2023-04-10T09:15:24;32.85;;;18.88;;
52816;SDS011;38687;43.330;21.924;2023-04-10T09:20:25;25.83;;;16.25;;
52816;SDS011;38687;43.330;21.924;2023-04-10T09:22:52;29.45;;;18.30;;
52816;SDS011;38687;43.330;21.924;2023-04-10T09:28:16;30.17;;;18.45;;
52816;SDS011;38687;43.330;21.924;2023-04-10T09:30:41;29.30;;;18.63;;
52816;SDS011;38687;43.330;21.924;2023-04-10T09:35:48;31.92;;;18.85;;
52816;SDS011;38687;43.330;21.924;2023-04-10T09:40:41;34.53;;;20.70;;
52816;SDS011;38687;43.330;21.924;2023-04-10T09:45:52;33.13;;;19.00;;
52816;SDS011;38687;43.330;21.924;2023-04-10T09:48:19;28.15;;;17.20;;
52816;SDS011;38687;43.330;21.924;2023-04-10T09:50:45;36.22;;;23.90;;
52816;SDS011;38687;43.330;21.924;2023-04-10T09:53:11;30.02;;;21.63;;
52816;SDS011;38687;43.330;21.924;2023-04-10T09:55:38;35.90;;;21.80;;
52816;SDS011;38687;43.330;21.924;2023-04-10T09:58:04;30.63;;;19.65;;
52816;SDS011;38687;43.330;21.924;2023-04-10T10:00:32;29.58;;;19.80;;
52816;SDS011;38687;43.330;21.924;2023-04-10T10:03:01;32.33;;;20.02;;
52816;SDS011;38687;43.330;21.924;2023-04-10T10:05:28;30.35;;;20.52;;
52816;SDS011;38687;43.330;21.924;2023-04-10T10:07:55;28.45;;;19.35;;
52816;SDS011;38687;43.330;21.924;2023-04-10T10:10:21;31.88;;;19.90;;
52816;SDS011;38687;43.330;21.924;2023-04-10T10:12:50;32.97;;;19.60;;
52816;SDS011;38687;43.330;21.924;2023-04-10T10:17:59;29.08;;;17.15;;
52816;SDS011;38687;43.330;21.924;2023-04-10T10:20:29;21.45;;;13.90;;
52816;SDS011;38687;43.330;21.924;2023-04-10T10:22:56;26.20;;;17.20;;
52816;SDS011;38687;43.330;21.924;2023-04-10T10:25:22;22.13;;;14.32;;
52816;SDS011;38687;43.330;21.924;2023-04-10T10:27:48;31.85;;;21.42;;
52816;SDS011;38687;43.330;21.924;2023-04-10T10:30:16;19.33;;;12.95;;
52816;SDS011;38687;43.330;21.924;2023-04-10T10:32:43;18.05;;;11.70;;
52816;SDS011;38687;43.330;21.924;2023-04-10T10:35:12;22.35;;;14.48;;
52816;SDS011;38687;43.330;21.924;2023-04-10T10:37:37;25.00;;;16.52;;
52816;SDS011;38687;43.330;21.924;2023-04-10T10:45:37;24.35;;;15.43;;
52816;SDS011;38687;43.330;21.924;2023-04-10T10:48:05;23.45;;;14.43;;
52816;SDS011;38687;43.330;21.924;2023-04-10T10:58:46;21.65;;;13.80;;
52816;SDS011;38687;43.330;21.924;2023-04-10T11:01:12;24.55;;;16.95;;
52816;SDS011;38687;43.330;21.924;2023-04-10T11:03:38;26.55;;;18.55;;
52816;SDS011;38687;43.330;21.924;2023-04-10T11:06:05;23.75;;;15.60;;
52816;SDS011;38687;43.330;21.924;2023-04-10T11:13:32;17.00;;;11.95;;
52816;SDS011;38687;43.330;21.924;2023-04-10T11:15:59;15.82;;;12.70;;
52816;SDS011;38687;43.330;21.924;2023-04-10T11:23:36;24.88;;;16.15;;
52816;SDS011;38687;43.330;21.924;2023-04-10T11:26:04;25.60;;;17.15;;
52816;SDS011;38687;43.330;21.924;2023-04-10T11:28:36;25.02;;;16.60;;
52816;SDS011;38687;43.330;21.924;2023-04-10T11:31:13;26.55;;;16.52;;
52816;SDS011;38687;43.330;21.924;2023-04-10T11:33:43;30.45;;;19.08;;
52816;SDS011;38687;43.330;21.924;2023-04-10T11:36:12;24.33;;;18.08;;
52816;SDS011;38687;43.330;21.924;2023-04-10T11:38:39;27.70;;;17.05;;
52816;SDS011;38687;43.330;21.924;2023-04-10T11:41:05;27.02;;;17.92;;
52816;SDS011;38687;43.330;21.924;2023-04-10T11:43:31;25.33;;;16.45;;
52816;SDS011;38687;43.330;21.924;2023-04-10T11:46:06;29.88;;;19.00;;
52816;SDS011;38687;43.330;21.924;2023-04-10T11:48:32;42.13;;;22.50;;
52816;SDS011;38687;43.330;21.924;2023-04-10T11:50:57;29.52;;;19.10;;
52816;SDS011;38687;43.330;21.924;2023-04-10T11:53:25;30.55;;;19.45;;
52816;SDS011;38687;43.330;21.924;2023-04-10T11:55:51;32.58;;;21.42;;
52816;SDS011;38687;43.330;21.924;2023-04-10T11:58:20;28.10;;;19.13;;
52816;SDS011;38687;43.330;21.924;2023-04-10T12:00:56;28.00;;;18.83;;
52816;SDS011;38687;43.330;21.924;2023-04-10T12:03:36;29.85;;;19.02;;
52816;SDS011;38687;43.330;21.924;2023-04-10T12:06:04;28.80;;;16.27;;
52816;SDS011;38687;43.330;21.924;2023-04-10T12:08:32;29.65;;;19.70;;
52816;SDS011;38687;43.330;21.924;2023-04-10T12:10:58;33.10;;;18.52;;
52816;SDS011;38687;43.330;21.924;2023-04-10T12:13:27;27.75;;;19.15;;
52816;SDS011;38687;43.330;21.924;2023-04-10T12:15:56;30.63;;;19.55;;
52816;SDS011;38687;43.330;21.924;2023-04-10T12:18:22;27.10;;;17.58;;
52816;SDS011;38687;43.330;21.924;2023-04-10T12:20:48;30.90;;;18.75;;
52816;SDS011;38687;43.330;21.924;2023-04-10T12:23:15;17.45;;;12.40;;
52816;SDS011;38687;43.330;21.924;2023-04-10T12:25:42;21.85;;;14.05;;
52816;SDS011;38687;43.330;21.924;2023-04-10T12:28:07;17.67;;;10.90;;
52816;SDS011;38687;43.330;21.924;2023-04-10T12:30:32;17.48;;;11.45;;
52816;SDS011;38687;43.330;21.924;2023-04-10T12:32:58;11.02;;;8.98;;
52816;SDS011;38687;43.330;21.924;2023-04-10T12:35:40;21.00;;;14.50;;
52816;SDS011;38687;43.330;21.924;2023-04-10T12:38:08;20.92;;;14.52;;
52816;SDS011;38687;43.330;21.924;2023-04-10T12:40:34;21.90;;;15.23;;
52816;SDS011;38687;43.330;21.924;2023-04-10T12:43:00;18.08;;;14.05;;
52816;SDS011;38687;43.330;21.924;2023-04-10T12:45:41;22.77;;;15.50;;
52816;SDS011;38687;43.330;21.924;2023-04-10T12:48:07;17.02;;;11.77;;
52816;SDS011;38687;43.330;21.924;2023-04-10T12:50:33;21.17;;;13.50;;
52816;SDS011;38687;43.330;21.924;2023-04-10T12:53:04;21.00;;;14.05;;
52816;SDS011;38687;43.330;21.924;2023-04-10T12:55:32;13.00;;;9.10;;
52816;SDS011;38687;43.330;21.924;2023-04-10T12:57:57;14.15;;;11.00;;
52816;SDS011;38687;43.330;21.924;2023-04-10T13:00:40;13.82;;;9.43;;
52816;SDS011;38687;43.330;21.924;2023-04-10T13:03:05;17.98;;;12.32;;
52816;SDS011;38687;43.330;21.924;2023-04-10T13:05:31;16.67;;;11.52;;
52816;SDS011;38687;43.330;21.924;2023-04-10T13:07:56;19.42;;;12.60;;
52816;SDS011;38687;43.330;21.924;2023-04-10T13:10:21;18.92;;;12.75;;
52816;SDS011;38687;43.330;21.924;2023-04-10T13:12:48;15.60;;;11.05;;
52816;SDS011;38687;43.330;21.924;2023-04-10T13:15:13;21.63;;;13.02;;
52816;SDS011;38687;43.330;21.924;2023-04-10T13:17:40;21.55;;;13.60;;
52816;SDS011;38687;43.330;21.924;2023-04-10T13:20:07;18.35;;;11.75;;
52816;SDS011;38687;43.330;21.924;2023-04-10T13:22:35;22.63;;;14.38;;
52816;SDS011;38687;43.330;21.924;2023-04-10T13:25:01;22.70;;;16.27;;
52816;SDS011;38687;43.330;21.924;2023-04-10T13:27:27;22.95;;;13.90;;
52816;SDS011;38687;43.330;21.924;2023-04-10T13:29:54;18.45;;;12.68;;
52816;SDS011;38687;43.330;21.924;2023-04-10T13:32:19;16.77;;;12.52;;
52816;SDS011;38687;43.330;21.924;2023-04-10T13:34:45;15.50;;;10.90;;
52816;SDS011;38687;43.330;21.924;2023-04-10T13:37:10;20.30;;;13.00;;
52816;SDS011;38687;43.330;21.924;2023-04-10T13:39:38;20.77;;;15.40;;
52816;SDS011;38687;43.330;21.924;2023-04-10T13:42:04;16.48;;;12.77;;
52816;SDS011;38687;43.330;21.924;2023-04-10T13:44:29;16.48;;;10.88;;
52816;SDS011;38687;43.330;21.924;2023-04-10T13:46:55;15.93;;;10.90;;
52816;SDS011;38687;43.330;21.924;2023-04-10T13:49:22;17.30;;;12.68;;
52816;SDS011;38687;43.330;21.924;2023-04-10T13:51:47;18.70;;;12.68;;
52816;SDS011;38687;43.330;21.924;2023-04-10T13:54:13;15.63;;;11.25;;
52816;SDS011;38687;43.330;21.924;2023-04-10T13:56:40;19.92;;;13.07;;
52816;SDS011;38687;43.330;21.924;2023-04-10T13:59:06;14.90;;;11.65;;
52816;SDS011;38687;43.330;21.924;2023-04-10T14:01:31;17.42;;;11.60;;
52816;SDS011;38687;43.330;21.924;2023-04-10T14:03:57;21.67;;;15.65;;
52816;SDS011;38687;43.330;21.924;2023-04-10T14:06:22;26.88;;;16.58;;
52816;SDS011;38687;43.330;21.924;2023-04-10T14:08:47;22.83;;;14.13;;
52816;SDS011;38687;43.330;21.924;2023-04-10T14:11:13;24.30;;;14.48;;
52816;SDS011;38687;43.330;21.924;2023-04-10T14:13:38;22.50;;;13.73;;
52816;SDS011;38687;43.330;21.924;2023-04-10T14:16:03;20.27;;;13.05;;
52816;SDS011;38687;43.330;21.924;2023-04-10T14:18:29;16.27;;;11.13;;
52816;SDS011;38687;43.330;21.924;2023-04-10T14:20:55;21.60;;;13.95;;
52816;SDS011;38687;43.330;21.924;2023-04-10T14:23:20;11.50;;;7.53;;
52816;SDS011;38687;43.330;21.924;2023-04-10T14:25:47;20.77;;;12.15;;
52816;SDS011;38687;43.330;21.924;2023-04-10T14:28:13;16.52;;;11.18;;
52816;SDS011;38687;43.330;21.924;2023-04-10T14:30:51;13.05;;;8.48;;
52816;SDS011;38687;43.330;21.924;2023-04-10T14:33:19;12.63;;;7.88;;
52816;SDS011;38687;43.330;21.924;2023-04-10T14:35:45;17.92;;;11.25;;
52816;SDS011;38687;43.330;21.924;2023-04-10T14:38:11;12.45;;;8.43;;
52816;SDS011;38687;43.330;21.924;2023-04-10T14:40:37;13.80;;;8.73;;
52816;SDS011;38687;43.330;21.924;2023-04-10T14:43:02;14.05;;;7.40;;
52816;SDS011;38687;43.330;21.924;2023-04-10T14:45:28;17.65;;;11.75;;
52816;SDS011;38687;43.330;21.924;2023-04-10T14:47:53;13.02;;;9.63;;
52816;SDS011;38687;43.330;21.924;2023-04-10T14:50:19;10.80;;;7.18;;
52816;SDS011;38687;43.330;21.924;2023-04-10T14:52:45;17.95;;;10.90;;
52816;SDS011;38687;43.330;21.924;2023-04-10T14:55:10;16.55;;;9.55;;
52816;SDS011;38687;43.330;21.924;2023-04-10T14:57:36;30.27;;;17.58;;
52816;SDS011;38687;43.330;21.924;2023-04-10T15:00:04;18.42;;;11.00;;
52816;SDS011;38687;43.330;21.924;2023-04-10T15:02:30;19.02;;;10.35;;